createdAt,value
2023-03-25T00:01:46.990Z,96852.31
2023-03-25T00:04:16.333Z,96853.67
2023-03-25T00:06:44.254Z,96856.30
2023-03-25T00:09:12.606Z,96850.52
2023-03-25T00:11:40.227Z,96853.00
2023-03-25T00:14:08.268Z,96850.52
2023-03-25T00:16:36.424Z,96840.25
2023-03-25T00:19:04.398Z,96823.44
2023-03-25T00:21:33.019Z,96831.81
2023-03-25T00:24:01.615Z,96827.50
2023-03-25T00:26:31.720Z,96832.27
2023-03-25T00:28:59.200Z,96829.31
2023-03-25T00:31:26.948Z,96825.03
2023-03-25T00:33:54.517Z,96829.87
2023-03-25T00:36:22.225Z,96832.59
2023-03-25T00:38:50.664Z,96818.48
2023-03-25T00:41:27.697Z,96820.08
2023-03-25T00:43:58.640Z,96816.80
2023-03-25T00:46:30.133Z,96809.69
2023-03-25T00:48:59.630Z,96815.78
2023-03-25T00:51:30.699Z,96805.74
2023-03-25T00:53:59.945Z,96809.23
2023-03-25T00:56:30.794Z,96811.38
2023-03-25T00:58:58.551Z,96809.45
2023-03-25T01:01:28.093Z,96807.87
2023-03-25T01:03:58.071Z,96797.19
2023-03-25T01:06:34.205Z,96799.89
2023-03-25T01:09:06.300Z,96795.59
2023-03-25T01:11:37.270Z,96795.94
2023-03-25T01:14:10.727Z,96782.40
2023-03-25T01:16:40.323Z,96780.37
2023-03-25T01:19:07.916Z,96781.28
2023-03-25T01:21:36.300Z,96779.47
2023-03-25T01:24:06.014Z,96776.33
2023-03-25T01:26:34.015Z,96768.88
2023-03-25T01:29:01.532Z,96762.33
2023-03-25T01:31:31.423Z,96767.88
2023-03-25T01:34:00.231Z,96769.77
2023-03-25T01:36:31.814Z,96766.41
2023-03-25T01:39:00.843Z,96766.63
2023-03-25T01:41:42.320Z,96752.88
2023-03-25T01:44:23.673Z,96753.67
2023-03-25T01:46:52.668Z,96740.45
2023-03-25T01:49:29.518Z,96726.48
2023-03-25T01:52:08.120Z,96730.09
2023-03-25T01:54:38.145Z,96731.22
2023-03-25T01:57:08.580Z,96730.33
2023-03-25T01:59:38.139Z,96729.41
2023-03-25T02:02:09.143Z,96725.36
2023-03-25T02:04:44.904Z,96722.41
2023-03-25T02:07:17.260Z,96723.98
2023-03-25T02:09:52.149Z,96728.02
2023-03-25T02:12:32.245Z,96718.97
2023-03-25T02:15:08.123Z,96710.38
2023-03-25T02:17:56.420Z,96704.36
2023-03-25T02:20:46.811Z,96699.72
2023-03-25T02:23:44.022Z,96700.82
2023-03-25T02:26:36.997Z,96697.43
2023-03-25T02:29:10.429Z,96696.86
2023-03-25T02:31:52.193Z,96695.86
2023-03-25T02:34:49.750Z,96694.83
2023-03-25T02:37:26.124Z,96693.37
2023-03-25T02:40:07.472Z,96692.28
2023-03-25T02:42:40.173Z,96687.54
2023-03-25T02:45:31.790Z,96690.39
2023-03-25T02:48:10.865Z,96689.61
2023-03-25T02:50:46.535Z,96689.75
2023-03-25T02:53:25.648Z,96694.92
2023-03-25T02:55:58.863Z,96687.16
2023-03-25T02:58:29.383Z,96685.34
2023-03-25T03:00:58.564Z,96688.77
2023-03-25T03:03:29.911Z,96682.88
2023-03-25T03:06:04.587Z,96684.02
2023-03-25T03:08:56.631Z,96685.95
2023-03-25T03:11:54.357Z,96683.56
2023-03-25T03:14:46.261Z,96679.08
2023-03-25T03:17:26.266Z,96676.94
2023-03-25T03:20:01.244Z,96672.09
2023-03-25T03:22:47.236Z,96673.77
2023-03-25T03:25:44.528Z,96675.48
2023-03-25T03:28:33.621Z,96674.69
2023-03-25T03:31:56.588Z,96678.86
2023-03-25T03:34:04.780Z,96677.29
2023-03-25T03:36:38.593Z,96677.40
2023-03-25T03:39:16.491Z,96673.80
2023-03-25T03:41:48.483Z,96677.08
2023-03-25T03:44:20.751Z,96673.70
2023-03-25T03:46:54.236Z,96669.87
2023-03-25T03:49:29.989Z,96673.70
2023-03-25T03:52:17.811Z,96673.48
2023-03-25T03:54:50.443Z,96677.53
2023-03-25T03:57:26.504Z,96686.33
2023-03-25T04:00:16.684Z,96691.53
2023-03-25T04:02:58.959Z,96699.22
2023-03-25T04:05:32.017Z,96691.98
2023-03-25T04:08:17.500Z,96681.84
2023-03-25T04:10:59.603Z,96689.52
2023-03-25T04:13:35.146Z,96688.39
2023-03-25T04:16:04.166Z,96687.38
2023-03-25T04:18:33.496Z,96686.59
2023-03-25T04:21:02.149Z,96682.54
2023-03-25T04:23:29.724Z,96681.41
2023-03-25T04:25:59.688Z,96678.91
2023-03-25T04:28:27.521Z,96681.84
2023-03-25T04:30:56.431Z,96683.44
2023-03-25T04:33:24.807Z,96679.95
2023-03-25T04:35:53.510Z,96679.95
2023-03-25T04:38:21.971Z,96682.30
2023-03-25T04:40:50.107Z,96680.73
2023-03-25T04:43:18.504Z,96683.87
2023-03-25T04:45:51.714Z,96690.53
2023-03-25T04:48:25.532Z,96683.63
2023-03-25T04:50:55.176Z,96675.40
2023-03-25T04:53:23.291Z,96669.42
2023-03-25T04:55:51.099Z,96672.13
2023-03-25T04:58:19.231Z,96669.09
2023-03-25T05:00:50.653Z,96667.39
2023-03-25T05:03:21.241Z,96669.98
2023-03-25T05:05:49.166Z,96665.58
2023-03-25T05:08:17.792Z,96670.52
2023-03-25T05:10:45.522Z,96667.78
2023-03-25T05:13:13.372Z,96669.34
2023-03-25T05:15:41.408Z,96667.98
2023-03-25T05:18:13.197Z,96668.84
2023-03-25T05:20:44.549Z,96661.13
2023-03-25T05:23:15.388Z,96663.35
2023-03-25T05:25:45.549Z,96665.69
2023-03-25T05:28:14.217Z,96666.64
2023-03-25T05:30:45.488Z,96675.23
2023-03-25T05:33:16.745Z,96674.97
2023-03-25T05:35:45.271Z,96672.61
2023-03-25T05:38:17.583Z,96679.03
2023-03-25T05:40:48.818Z,96681.41
2023-03-25T05:43:17.042Z,96680.36
2023-03-25T05:45:46.496Z,96684.64
2023-03-25T05:48:14.028Z,96689.95
2023-03-25T05:50:42.250Z,96688.92
2023-03-25T05:53:16.548Z,96695.91
2023-03-25T05:55:44.287Z,96690.84
2023-03-25T05:58:12.245Z,96683.77
2023-03-25T06:00:39.840Z,96690.96
2023-03-25T06:03:07.966Z,96692.10
2023-03-25T06:05:41.808Z,96696.31
2023-03-25T06:08:09.109Z,96694.15
2023-03-25T06:10:36.894Z,96687.16
2023-03-25T06:13:04.820Z,96681.73
2023-03-25T06:15:37.239Z,96679.24
2023-03-25T06:18:05.112Z,96688.72
2023-03-25T06:20:33.042Z,96691.68
2023-03-25T06:23:01.683Z,96691.89
2023-03-25T06:25:30.874Z,96686.26
2023-03-25T06:28:00.369Z,96689.54
2023-03-25T06:30:28.160Z,96683.09
2023-03-25T06:32:56.047Z,96692.94
2023-03-25T06:35:23.688Z,96679.50
2023-03-25T06:37:51.586Z,96685.23
2023-03-25T06:40:23.816Z,96684.91
2023-03-25T06:42:51.536Z,96685.33
2023-03-25T06:45:21.078Z,96683.50
2023-03-25T06:47:55.056Z,96677.39
2023-03-25T06:50:22.829Z,96673.99
2023-03-25T06:52:50.401Z,96669.45
2023-03-25T06:55:17.981Z,96662.29
2023-03-25T06:57:45.894Z,96663.89
2023-03-25T07:00:14.168Z,96665.61
2023-03-25T07:02:41.766Z,96665.27
2023-03-25T07:05:10.273Z,96667.96
2023-03-25T07:07:37.959Z,96660.78
2023-03-25T07:10:07.052Z,96656.83
2023-03-25T07:12:36.588Z,96648.82
2023-03-25T07:15:05.362Z,96645.09
2023-03-25T07:17:33.352Z,96646.01
2023-03-25T07:20:01.086Z,96652.66
2023-03-25T07:22:29.044Z,96656.16
2023-03-25T07:24:58.214Z,96657.47
2023-03-25T07:27:25.958Z,96661.86
2023-03-25T07:29:58.046Z,96661.09
2023-03-25T07:32:25.922Z,96664.85
2023-03-25T07:34:53.735Z,96661.75
2023-03-25T07:37:21.778Z,96670.13
2023-03-25T07:39:49.650Z,96662.53
2023-03-25T07:42:17.442Z,96652.02
2023-03-25T07:45:06.983Z,96656.30
2023-03-25T07:47:35.251Z,96655.98
2023-03-25T07:50:03.842Z,96648.95
2023-03-25T07:52:31.844Z,96644.23
2023-03-25T07:55:00.509Z,96642.05
2023-03-25T07:57:28.206Z,96647.64
2023-03-25T07:59:56.187Z,96646.72
2023-03-25T08:02:24.349Z,96657.47
2023-03-25T08:04:53.922Z,96647.78
2023-03-25T08:07:21.562Z,96647.09
2023-03-25T08:09:49.216Z,96646.98
2023-03-25T08:12:16.641Z,96653.14
2023-03-25T08:14:45.942Z,96654.77
2023-03-25T08:17:13.613Z,96642.93
2023-03-25T08:19:41.300Z,96642.81
2023-03-25T08:22:09.113Z,96648.02
2023-03-25T08:24:36.990Z,96635.66
2023-03-25T08:27:14.998Z,96640.05
2023-03-25T08:29:34.680Z,96625.70
2023-03-25T08:32:02.643Z,96632.02
2023-03-25T08:34:32.242Z,96636.36
2023-03-25T08:36:59.922Z,96634.20
2023-03-25T08:39:29.331Z,96636.75
2023-03-25T08:41:58.750Z,96638.28
2023-03-25T08:44:26.532Z,96636.45
2023-03-25T08:46:54.322Z,96647.94
2023-03-25T08:49:22.211Z,96649.83
2023-03-25T08:51:50.019Z,96651.75
2023-03-25T08:54:17.766Z,96658.77
2023-03-25T08:56:45.823Z,96649.41
2023-03-25T08:59:13.528Z,96656.48
2023-03-25T09:01:43.037Z,96660.03
2023-03-25T09:04:11.796Z,96657.30
2023-03-25T09:06:47.763Z,96666.10
2023-03-25T09:09:13.017Z,96656.13
2023-03-25T09:11:40.716Z,96657.91
2023-03-25T09:14:08.480Z,96657.72
2023-03-25T09:16:36.305Z,96656.77
2023-03-25T09:19:06.086Z,96653.45
2023-03-25T09:21:33.636Z,96649.21
2023-03-25T09:24:01.452Z,96650.27
2023-03-25T09:26:29.209Z,96653.81
2023-03-25T09:28:56.871Z,96657.74
2023-03-25T09:31:25.502Z,96649.16
2023-03-25T09:33:52.999Z,96649.73
2023-03-25T09:36:20.827Z,96648.96
2023-03-25T09:38:48.586Z,96644.50
2023-03-25T09:41:53.447Z,96648.01
2023-03-25T09:44:32.357Z,96655.98
2023-03-25T09:47:01.966Z,96652.28
2023-03-25T09:49:38.261Z,96647.20
2023-03-25T09:52:14.423Z,96645.04
2023-03-25T09:54:50.552Z,96646.59
2023-03-25T09:57:26.682Z,96643.86
2023-03-25T09:59:56.370Z,96641.13
2023-03-25T10:02:57.861Z,96639.59
2023-03-25T10:05:52.516Z,96631.80
2023-03-25T10:08:35.118Z,96641.56
2023-03-25T10:11:20.599Z,96627.49
2023-03-25T10:14:11.360Z,96627.28
2023-03-25T10:16:53.446Z,96639.36
2023-03-25T10:19:44.643Z,96639.33
2023-03-25T10:22:29.521Z,96647.45
2023-03-25T10:25:17.873Z,96640.10
2023-03-25T10:27:49.388Z,96639.20
2023-03-25T10:30:22.500Z,96639.20
2023-03-25T10:32:57.158Z,96640.44
2023-03-25T10:35:45.554Z,96638.73
2023-03-25T10:38:22.896Z,96643.31
2023-03-25T10:41:01.319Z,96635.75
2023-03-25T10:43:39.540Z,96637.61
2023-03-25T10:46:47.999Z,96636.35
2023-03-25T10:49:21.032Z,96641.47
2023-03-25T10:51:56.396Z,96627.11
2023-03-25T10:54:29.243Z,96625.66
2023-03-25T10:57:05.304Z,96621.27
2023-03-25T10:59:53.992Z,96622.69
2023-03-25T11:02:29.351Z,96624.35
2023-03-25T11:05:06.093Z,96621.33
2023-03-25T11:07:41.135Z,96618.05
2023-03-25T11:10:19.910Z,96624.19
2023-03-25T11:12:52.024Z,96618.44
2023-03-25T11:15:35.469Z,96618.70
2023-03-25T11:18:35.139Z,96618.21
2023-03-25T11:21:17.531Z,96617.37
2023-03-25T11:23:48.798Z,96614.53
2023-03-25T11:26:23.798Z,96608.57
2023-03-25T11:28:56.204Z,96611.88
2023-03-25T11:31:27.005Z,96604.69
2023-03-25T11:34:08.602Z,96608.38
2023-03-25T11:36:55.476Z,96602.49
2023-03-25T11:39:39.332Z,96599.56
2023-03-25T11:42:28.396Z,96606.11
2023-03-25T11:44:59.052Z,96592.45
2023-03-25T11:47:36.433Z,96594.13
2023-03-25T11:50:06.480Z,96581.45
2023-03-25T11:52:44.638Z,96575.80
2023-03-25T11:55:31.372Z,96582.60
2023-03-25T11:58:01.644Z,96572.45
2023-03-25T12:00:39.848Z,96573.26
2023-03-25T12:03:20.736Z,96569.18
2023-03-25T12:06:02.606Z,96564.73
2023-03-25T12:08:47.669Z,96572.88
2023-03-25T12:11:39.231Z,96562.41
2023-03-25T12:14:50.773Z,96572.77
2023-03-25T12:17:54.410Z,96567.97
2023-03-25T12:20:42.939Z,96563.17
2023-03-25T12:23:43.380Z,96556.36
2023-03-25T12:26:49.860Z,96561.43
2023-03-25T12:29:28.844Z,96561.75
2023-03-25T12:32:13.838Z,96551.45
2023-03-25T12:34:48.752Z,96549.66
2023-03-25T12:37:41.418Z,96555.91
2023-03-25T12:40:29.368Z,96555.91
2023-03-25T12:43:28.107Z,96551.25
2023-03-25T12:46:23.653Z,96548.09
2023-03-25T12:49:15.440Z,96546.73
2023-03-25T12:51:54.345Z,96541.73
2023-03-25T12:55:02.353Z,96538.05
2023-03-25T12:58:02.500Z,96534.08
2023-03-25T13:00:47.522Z,96532.41
2023-03-25T13:03:23.720Z,96526.09
2023-03-25T13:06:05.690Z,96532.13
2023-03-25T13:08:57.377Z,96527.91
2023-03-25T13:11:33.596Z,96529.47
2023-03-25T13:14:06.814Z,96521.88
2023-03-25T13:16:37.961Z,96518.91
2023-03-25T13:19:17.079Z,96523.92
2023-03-25T13:21:53.140Z,96520.06
2023-03-25T13:24:35.544Z,96513.79
2023-03-25T13:27:05.688Z,96517.09
2023-03-25T13:29:49.481Z,96512.78
2023-03-25T13:32:42.819Z,96505.00
2023-03-25T13:35:37.145Z,96506.94
2023-03-25T13:38:19.621Z,96505.00
2023-03-25T13:40:52.608Z,96501.30
2023-03-25T13:43:32.912Z,96506.16
2023-03-25T13:46:20.599Z,96498.59
2023-03-25T13:49:02.238Z,96501.95
2023-03-25T13:51:30.268Z,96502.16
2023-03-25T13:54:18.306Z,96501.42
2023-03-25T13:57:12.627Z,96502.26
2023-03-25T14:00:14.152Z,96498.80
2023-03-25T14:03:06.918Z,96497.30
2023-03-25T14:06:09.327Z,96502.56
2023-03-25T14:08:48.424Z,96499.44
2023-03-25T14:11:27.691Z,96501.38
2023-03-25T14:14:15.922Z,96505.23
2023-03-25T14:16:48.826Z,96502.69
2023-03-25T14:19:30.332Z,96506.34
2023-03-25T14:21:58.661Z,96504.98
2023-03-25T14:24:36.310Z,96504.34
2023-03-25T14:27:28.982Z,96514.20
2023-03-25T14:30:08.260Z,96511.65
2023-03-25T14:32:39.581Z,96505.58
2023-03-25T14:35:37.390Z,96519.76
2023-03-25T14:38:13.621Z,96518.34
2023-03-25T14:41:01.290Z,96519.22
2023-03-25T14:43:35.285Z,96525.17
2023-03-25T14:46:17.852Z,96523.73
2023-03-25T14:48:53.977Z,96534.55
2023-03-25T14:51:34.430Z,96536.52
2023-03-25T14:54:20.600Z,96537.89
2023-03-25T14:57:07.865Z,96550.78
2023-03-25T14:59:43.243Z,96548.68
2023-03-25T15:02:23.323Z,96544.10
2023-03-25T15:05:05.981Z,96554.36
2023-03-25T15:07:53.515Z,96549.67
2023-03-25T15:10:29.772Z,96551.77
2023-03-25T15:13:05.114Z,96554.70
2023-03-25T15:15:51.689Z,96558.22
2023-03-25T15:18:40.910Z,96559.64
2023-03-25T15:21:12.869Z,96562.64
2023-03-25T15:23:47.623Z,96560.22
2023-03-25T15:26:34.805Z,96555.50
2023-03-25T15:29:27.600Z,96548.72
2023-03-25T15:32:20.484Z,96556.20
2023-03-25T15:35:17.938Z,96563.28
2023-03-25T15:38:02.995Z,96566.52
2023-03-25T15:41:13.055Z,96555.66
2023-03-25T15:44:02.896Z,96559.48
2023-03-25T15:47:00.019Z,96570.59
2023-03-25T15:50:08.912Z,96571.16
2023-03-25T15:53:41.841Z,96570.72
2023-03-25T15:56:10.196Z,96576.63
2023-03-25T15:59:06.552Z,96588.64
2023-03-25T16:01:38.138Z,96581.65
2023-03-25T16:04:14.193Z,96594.07
2023-03-25T16:06:49.089Z,96581.56
2023-03-25T16:09:26.032Z,96589.45
2023-03-25T16:12:02.292Z,96592.45
2023-03-25T16:14:32.864Z,96594.37
2023-03-25T16:17:03.874Z,96593.02
2023-03-25T16:19:52.820Z,96594.58
2023-03-25T16:22:27.856Z,96596.80
2023-03-25T16:25:06.175Z,96597.95
2023-03-25T16:27:40.207Z,96602.73
2023-03-25T16:30:29.923Z,96592.78
2023-03-25T16:33:13.282Z,96598.50
2023-03-25T16:35:48.969Z,96597.36
2023-03-25T16:38:21.199Z,96597.65
2023-03-25T16:40:49.966Z,96595.14
2023-03-25T16:43:26.749Z,96601.48
2023-03-25T16:46:02.935Z,96600.41
2023-03-25T16:48:40.449Z,96602.68
2023-03-25T16:51:25.138Z,96602.47
2023-03-25T16:53:55.661Z,96603.98
2023-03-25T16:56:30.276Z,96607.53
2023-03-25T16:59:29.280Z,96616.60
2023-03-25T17:01:59.885Z,96616.60
2023-03-25T17:04:38.761Z,96617.02
2023-03-25T17:07:14.553Z,96619.03
2023-03-25T17:09:44.276Z,96621.83
2023-03-25T17:12:19.054Z,96621.47
2023-03-25T17:14:49.741Z,96627.34
2023-03-25T17:17:35.374Z,96633.63
2023-03-25T17:20:17.478Z,96642.77
2023-03-25T17:23:06.874Z,96648.57
2023-03-25T17:25:53.323Z,96645.81
2023-03-25T17:28:29.235Z,96638.52
2023-03-25T17:30:57.508Z,96647.37
2023-03-25T17:33:38.239Z,96642.80
2023-03-25T17:36:11.995Z,96647.95
2023-03-25T17:38:43.297Z,96650.50
2023-03-25T17:41:12.130Z,96647.34
2023-03-25T17:43:47.896Z,96645.98
2023-03-25T17:46:22.662Z,96635.13
2023-03-25T17:48:52.873Z,96624.92
2023-03-25T17:51:21.502Z,96623.07
2023-03-25T17:53:49.515Z,96623.44
2023-03-25T17:56:26.890Z,96626.36
2023-03-25T17:59:00.046Z,96642.23
2023-03-25T18:01:30.094Z,96642.84
2023-03-25T18:03:58.220Z,96646.75
2023-03-25T18:06:26.006Z,96648.52
2023-03-25T18:08:54.169Z,96651.51
2023-03-25T18:11:21.927Z,96654.14
2023-03-25T18:13:49.956Z,96655.65
2023-03-25T18:16:21.218Z,96657.55
2023-03-25T18:18:49.097Z,96658.69
2023-03-25T18:21:18.940Z,96661.20
2023-03-25T18:23:48.119Z,96655.32
2023-03-25T18:26:18.834Z,96660.33
2023-03-25T18:28:47.996Z,96660.12
2023-03-25T18:31:17.482Z,96671.17
2023-03-25T18:33:51.002Z,96664.81
2023-03-25T18:36:18.693Z,96666.83
2023-03-25T18:38:47.158Z,96672.92
2023-03-25T18:41:16.786Z,96667.91
2023-03-25T18:43:45.088Z,96672.64
2023-03-25T18:46:14.641Z,96679.15
2023-03-25T18:48:43.208Z,96672.81
2023-03-25T18:51:13.116Z,96677.30
2023-03-25T18:53:41.293Z,96674.25
2023-03-25T18:56:09.689Z,96672.90
2023-03-25T18:58:37.790Z,96674.83
2023-03-25T19:01:11.586Z,96664.67
2023-03-25T19:03:40.705Z,96659.73
2023-03-25T19:06:11.901Z,96658.87
2023-03-25T19:08:42.798Z,96658.20
2023-03-25T19:11:20.039Z,96657.55
2023-03-25T19:13:40.968Z,96651.25
2023-03-25T19:16:09.519Z,96647.43
2023-03-25T19:18:36.873Z,96639.56
2023-03-25T19:21:05.564Z,96645.03
2023-03-25T19:23:34.712Z,96641.45
2023-03-25T19:26:02.825Z,96640.16
2023-03-25T19:28:30.554Z,96638.97
2023-03-25T19:31:00.992Z,96645.00
2023-03-25T19:33:30.511Z,96643.45
2023-03-25T19:36:00.632Z,96641.49
2023-03-25T19:38:32.257Z,96639.62
2023-03-25T19:41:08.364Z,96642.92
2023-03-25T19:43:36.763Z,96642.52
2023-03-25T19:46:06.401Z,96651.27
2023-03-25T19:48:35.013Z,96648.45
2023-03-25T19:51:03.893Z,96652.99
2023-03-25T19:53:31.835Z,96644.20
2023-03-25T19:56:04.894Z,96645.56
2023-03-25T19:58:33.984Z,96636.81
2023-03-25T20:01:01.791Z,96641.02
2023-03-25T20:03:31.653Z,96639.09
2023-03-25T20:06:01.770Z,96641.80
2023-03-25T20:08:30.431Z,96640.20
2023-03-25T20:10:58.577Z,96640.77
2023-03-25T20:13:26.694Z,96649.00
2023-03-25T20:15:55.079Z,96654.40
2023-03-25T20:18:23.161Z,96654.14
2023-03-25T20:20:50.932Z,96656.28
2023-03-25T20:23:18.526Z,96659.20
2023-03-25T20:25:46.951Z,96656.86
2023-03-25T20:28:14.668Z,96664.63
2023-03-25T20:30:42.270Z,96663.84
2023-03-25T20:33:10.679Z,96664.52
2023-03-25T20:35:38.370Z,96658.22
2023-03-25T20:38:06.048Z,96658.46
2023-03-25T20:40:43.954Z,96652.94
2023-03-25T20:43:06.093Z,96654.98
2023-03-25T20:45:34.098Z,96643.83
2023-03-25T20:48:03.278Z,96643.16
2023-03-25T20:50:31.886Z,96642.48
2023-03-25T20:52:59.648Z,96644.45
2023-03-25T20:55:27.342Z,96641.18
2023-03-25T20:57:55.188Z,96638.83
2023-03-25T21:00:22.872Z,96643.45
2023-03-25T21:02:51.830Z,96644.92
2023-03-25T21:05:19.437Z,96650.12
2023-03-25T21:07:47.828Z,96644.38
2023-03-25T21:10:16.417Z,96653.21
2023-03-25T21:12:45.033Z,96652.89
2023-03-25T21:15:15.312Z,96653.42
2023-03-25T21:17:43.735Z,96653.42
2023-03-25T21:20:12.482Z,96653.42
2023-03-25T21:22:44.630Z,96648.36
2023-03-25T21:25:14.236Z,96642.14
2023-03-25T21:27:44.405Z,96644.06
2023-03-25T21:30:13.469Z,96632.81
2023-03-25T21:32:41.456Z,96630.21
2023-03-25T21:35:09.996Z,96627.08
2023-03-25T21:37:38.261Z,96631.31
2023-03-25T21:40:09.771Z,96636.84
2023-03-25T21:42:38.087Z,96638.08
2023-03-25T21:45:08.339Z,96634.48
2023-03-25T21:47:36.561Z,96632.02
2023-03-25T21:50:08.752Z,96634.70
2023-03-25T21:52:37.876Z,96626.83
2023-03-25T21:55:07.506Z,96632.91
2023-03-25T21:57:37.106Z,96634.05
2023-03-25T22:00:09.147Z,96640.48
2023-03-25T22:02:45.146Z,96639.13
2023-03-25T22:05:15.667Z,96637.67
2023-03-25T22:07:44.199Z,96637.91
2023-03-25T22:10:12.106Z,96643.31
2023-03-25T22:12:40.051Z,96648.61
2023-03-25T22:15:09.568Z,96643.20
2023-03-25T22:17:37.087Z,96640.84
2023-03-25T22:20:06.473Z,96640.73
2023-03-25T22:22:35.966Z,96642.19
2023-03-25T22:25:04.416Z,96642.89
2023-03-25T22:27:32.008Z,96633.18
2023-03-25T22:30:00.720Z,96634.31
2023-03-25T22:32:28.548Z,96631.61
2023-03-25T22:34:56.103Z,96627.55
2023-03-25T22:37:24.154Z,96628.02
2023-03-25T22:39:51.755Z,96628.92
2023-03-25T22:42:19.848Z,96634.52
2023-03-25T22:44:47.843Z,96628.91
2023-03-25T22:47:15.625Z,96616.60
2023-03-25T22:49:43.346Z,96626.75
2023-03-25T22:52:11.937Z,96632.27
2023-03-25T22:54:39.677Z,96630.13
2023-03-25T22:57:07.325Z,96633.63
2023-03-25T22:59:35.019Z,96621.25
2023-03-25T23:02:02.729Z,96615.70
2023-03-25T23:04:30.343Z,96621.01
2023-03-25T23:07:07.236Z,96619.20
2023-03-25T23:09:44.555Z,96625.96
2023-03-25T23:12:16.394Z,96628.66
2023-03-25T23:14:51.754Z,96636.20
2023-03-25T23:17:20.498Z,96618.98
2023-03-25T23:19:48.736Z,96624.61
2023-03-25T23:22:16.705Z,96629.02
2023-03-25T23:24:45.256Z,96641.72
2023-03-25T23:27:13.447Z,96632.95
2023-03-25T23:29:41.286Z,96639.47
2023-03-25T23:32:10.403Z,96640.61
2023-03-25T23:34:39.577Z,96642.75
2023-03-25T23:37:08.615Z,96641.08
2023-03-25T23:39:39.061Z,96642.19
2023-03-25T23:42:06.760Z,96642.08
2023-03-25T23:44:35.750Z,96651.52
2023-03-25T23:47:03.922Z,96647.01
2023-03-25T23:49:32.766Z,96649.83
2023-03-25T23:52:00.582Z,96646.66
2023-03-25T23:54:28.864Z,96643.95
2023-03-25T23:56:57.521Z,96644.63
2023-03-25T23:59:25.242Z,96646.09
